Terminal Aerodrome Forecast
Issued by NWS Sterling, VA

Current Version | Previous Version | Text Only | Print | Product List | Glossary Off
Versions: 1 2 3 4 5 6 7 8 9 10 11 12 13 14 15 16 17

000
FTUS41 KLWX 241700
TAFMRB
TAF
KMRB 241739Z 2418/2518 31010KT P6SM SCT025 OVC045
     FM250200 28008KT P6SM SCT250
     FM251000 VRB04KT 5SM BR SCT030 BKN150=

USA.gov is the U.S. government's official web portal to all federal, state and local government web resources and services.